createdAt,value
2019-04-06T00:02:43.140Z,29.33
2019-04-06T00:07:38.997Z,30.10
2019-04-06T00:12:34.673Z,29.13
2019-04-06T00:17:31.210Z,31.23
2019-04-06T00:22:27.001Z,27.17
2019-04-06T00:27:24.566Z,29.07
2019-04-06T00:32:25.425Z,29.60
2019-04-06T00:37:21.186Z,25.87
2019-04-06T00:42:17.045Z,25.80
2019-04-06T00:47:12.733Z,29.50
2019-04-06T00:52:08.577Z,28.60
2019-04-06T00:57:04.367Z,24.97
2019-04-06T01:02:00.347Z,23.57
2019-04-06T01:06:56.039Z,26.53
2019-04-06T01:11:51.913Z,27.47
2019-04-06T01:16:47.590Z,25.93
2019-04-06T01:21:44.003Z,26.13
2019-04-06T01:26:39.695Z,25.57
2019-04-06T01:31:35.772Z,24.43
2019-04-06T01:36:31.463Z,24.37
2019-04-06T01:41:27.391Z,23.93
2019-04-06T01:46:23.072Z,25.43
2019-04-06T01:51:18.964Z,25.00
2019-04-06T01:56:18.745Z,23.30
2019-04-06T02:01:17.226Z,25.30
2019-04-06T02:06:12.911Z,27.90
2019-04-06T02:11:08.763Z,21.30
2019-04-06T02:16:04.545Z,28.20
2019-04-06T02:21:00.719Z,28.03
2019-04-06T02:25:57.307Z,25.20
2019-04-06T02:31:03.942Z,26.93
2019-04-06T02:36:13.467Z,30.63
2019-04-06T02:41:27.763Z,29.07
2019-04-06T02:46:23.450Z,28.83
2019-04-06T02:51:19.567Z,28.20
2019-04-06T02:56:15.261Z,28.33
2019-04-06T03:01:11.613Z,28.27
2019-04-06T03:06:07.641Z,29.47
2019-04-06T03:11:03.689Z,27.80
2019-04-06T03:15:59.567Z,26.87
2019-04-06T03:20:55.447Z,27.53
2019-04-06T03:25:51.136Z,27.47
2019-04-06T03:30:47.620Z,29.33
2019-04-06T03:35:47.613Z,30.23
2019-04-06T03:40:41.322Z,28.00
2019-04-06T03:45:37.740Z,27.00
2019-04-06T03:50:33.446Z,24.40
2019-04-06T03:55:29.921Z,26.13
2019-04-06T04:00:25.623Z,27.40
2019-04-06T04:05:21.718Z,23.47
2019-04-06T04:10:19.377Z,25.27
2019-04-06T04:15:16.021Z,25.20
2019-04-06T04:20:11.838Z,22.63
2019-04-06T04:25:08.508Z,27.57
2019-04-06T04:30:06.012Z,25.33
2019-04-06T04:35:03.104Z,24.43
2019-04-06T04:39:58.842Z,28.27
2019-04-06T04:44:54.807Z,26.73
2019-04-06T04:49:50.543Z,28.53
2019-04-06T04:54:46.560Z,29.10
2019-04-06T04:59:42.238Z,35.53
2019-04-06T05:04:38.001Z,27.83
2019-04-06T05:09:33.681Z,29.03
2019-04-06T05:14:48.140Z,28.27
2019-04-06T05:19:43.817Z,27.10
2019-04-06T05:24:39.953Z,29.43
2019-04-06T05:29:35.645Z,28.07
2019-04-06T05:34:31.959Z,26.60
2019-04-06T05:39:27.883Z,25.33
2019-04-06T05:44:23.773Z,26.37
2019-04-06T05:49:19.444Z,26.63
2019-04-06T05:54:15.433Z,28.63
2019-04-06T05:59:11.433Z,28.47
2019-04-06T06:04:10.362Z,27.80
2019-04-06T06:09:05.528Z,30.50
2019-04-06T06:14:02.001Z,30.47
2019-04-06T06:18:57.830Z,28.00
2019-04-06T06:23:54.312Z,29.40
2019-04-06T06:28:50.075Z,29.33
2019-04-06T06:33:46.330Z,28.90
2019-04-06T06:38:42.969Z,26.80
2019-04-06T06:43:38.995Z,25.93
2019-04-06T06:48:34.723Z,31.10
2019-04-06T06:53:30.615Z,25.07
2019-04-06T06:58:26.341Z,24.37
2019-04-06T07:03:22.519Z,23.80
2019-04-06T07:08:18.273Z,25.83
2019-04-06T07:13:14.153Z,25.03
2019-04-06T07:18:09.852Z,31.00
2019-04-06T07:23:05.749Z,28.47
2019-04-06T07:28:01.434Z,27.67
2019-04-06T07:32:57.306Z,29.80
2019-04-06T07:37:53.086Z,27.67
2019-04-06T07:42:49.790Z,32.60
2019-04-06T07:47:45.555Z,31.60
2019-04-06T07:52:41.665Z,33.17
2019-04-06T07:57:37.577Z,30.20
2019-04-06T08:02:33.739Z,29.57
2019-04-06T08:07:30.025Z,24.13
2019-04-06T08:12:26.709Z,22.27
2019-04-06T08:17:22.448Z,22.10
2019-04-06T08:22:18.320Z,22.17
2019-04-06T08:27:13.977Z,21.03
2019-04-06T08:32:10.052Z,22.73
2019-04-06T08:37:05.755Z,21.83
2019-04-06T08:42:01.609Z,21.42
2019-04-06T08:46:57.315Z,18.55
2019-04-06T08:51:53.387Z,22.02
2019-04-06T08:56:49.067Z,18.32
2019-04-06T09:01:45.575Z,16.00
2019-04-06T09:06:41.245Z,18.12
2019-04-06T09:11:37.079Z,15.53
2019-04-06T09:16:32.771Z,13.15
2019-04-06T09:21:28.531Z,16.40
2019-04-06T09:26:24.471Z,13.83
2019-04-06T09:31:20.453Z,13.80
2019-04-06T09:36:16.132Z,14.23
2019-04-06T09:41:12.142Z,15.58
2019-04-06T09:46:21.591Z,12.40
2019-04-06T09:51:19.533Z,9.65
2019-04-06T09:56:20.307Z,13.28
2019-04-06T10:01:18.156Z,12.53
2019-04-06T10:06:34.553Z,14.85
2019-04-06T10:11:44.641Z,10.38
2019-04-06T10:16:58.223Z,10.40
2019-04-06T10:21:55.928Z,10.65
2019-04-06T10:26:56.346Z,9.68
2019-04-06T10:31:59.961Z,14.20
2019-04-06T10:37:12.697Z,10.58
2019-04-06T10:42:10.569Z,11.25
2019-04-06T10:47:11.396Z,11.00
2019-04-06T10:52:25.715Z,10.20
2019-04-06T10:57:38.264Z,11.43
2019-04-06T11:02:44.758Z,13.43
2019-04-06T11:07:43.229Z,10.28
2019-04-06T11:12:57.558Z,10.98
2019-04-06T11:18:10.412Z,10.70
2019-04-06T11:23:11.350Z,11.75
2019-04-06T11:28:09.715Z,10.98
2019-04-06T11:33:10.115Z,9.95
2019-04-06T11:38:13.797Z,9.83
2019-04-06T11:43:20.242Z,9.60
2019-04-06T11:48:34.516Z,12.05
2019-04-06T11:53:37.927Z,11.78
2019-04-06T11:58:44.899Z,14.30
2019-04-06T12:03:45.623Z,13.90
2019-04-06T12:08:43.407Z,10.30
2019-04-06T12:13:47.120Z,12.05
2019-04-06T12:18:57.148Z,10.30
2019-04-06T12:23:58.048Z,10.30
2019-04-06T12:29:04.861Z,11.03
2019-04-06T12:34:11.380Z,11.35
2019-04-06T12:39:11.602Z,10.63
2019-04-06T12:44:09.799Z,10.40
2019-04-06T12:49:10.335Z,11.55
2019-04-06T12:54:11.029Z,9.53
2019-04-06T12:59:27.847Z,9.85
2019-04-06T13:04:25.585Z,9.68
2019-04-06T13:09:26.295Z,10.53
2019-04-06T13:14:23.997Z,10.45
2019-04-06T13:19:25.199Z,13.15
2019-04-06T13:24:29.022Z,10.68
2019-04-06T13:29:32.445Z,10.80
2019-04-06T13:34:39.245Z,9.98
2019-04-06T13:40:03.235Z,11.03
2019-04-06T13:45:15.903Z,10.72
2019-04-06T13:50:16.112Z,12.58
2019-04-06T13:55:16.781Z,10.78
2019-04-06T14:00:32.137Z,15.83
2019-04-06T14:05:32.726Z,12.40
2019-04-06T14:10:48.179Z,8.73
2019-04-06T14:16:04.498Z,10.00
2019-04-06T14:21:18.761Z,9.70
2019-04-06T14:26:33.367Z,11.60
2019-04-06T14:31:47.397Z,9.20
2019-04-06T14:36:48.087Z,10.15
2019-04-06T14:41:57.745Z,8.58
2019-04-06T14:46:58.374Z,9.05
2019-04-06T14:52:14.383Z,9.53
2019-04-06T14:57:18.108Z,9.38
2019-04-06T15:02:18.612Z,10.25
2019-04-06T15:07:28.499Z,15.70
2019-04-06T15:12:32.114Z,8.80
2019-04-06T15:17:32.693Z,10.13
2019-04-06T15:22:39.242Z,7.60
2019-04-06T15:27:48.799Z,10.23
2019-04-06T15:33:01.455Z,7.60
2019-04-06T15:38:13.967Z,7.28
2019-04-06T15:43:14.536Z,8.43
2019-04-06T15:48:12.515Z,11.55
2019-04-06T15:53:19.806Z,10.50
2019-04-06T15:58:27.189Z,10.28
2019-04-06T16:03:27.451Z,11.30
2019-04-06T16:08:28.335Z,8.18
2019-04-06T16:13:29.171Z,9.63
2019-04-06T16:18:33.119Z,8.85
2019-04-06T16:23:37.029Z,8.55
2019-04-06T16:28:37.567Z,7.78
2019-04-06T16:33:51.806Z,8.33
2019-04-06T16:38:55.345Z,8.48
2019-04-06T16:43:56.049Z,8.05
2019-04-06T16:48:56.902Z,8.65
2019-04-06T16:54:06.849Z,10.53
2019-04-06T16:59:13.773Z,7.45
2019-04-06T17:04:13.999Z,7.58
2019-04-06T17:09:20.904Z,7.37
2019-04-06T17:14:21.381Z,10.10
2019-04-06T17:19:19.194Z,6.87
2019-04-06T17:24:31.707Z,8.80
2019-04-06T17:29:45.994Z,7.67
2019-04-06T17:34:54.869Z,8.97
2019-04-06T17:39:52.054Z,7.27
2019-04-06T17:44:49.885Z,6.87
2019-04-06T17:49:50.678Z,7.47
2019-04-06T17:55:00.726Z,8.43
2019-04-06T18:00:01.888Z,7.00
2019-04-06T18:05:16.189Z,10.47
2019-04-06T18:10:14.573Z,6.10
2019-04-06T18:15:10.912Z,9.83
2019-04-06T18:20:07.866Z,15.80
2019-04-06T18:25:04.625Z,17.13
2019-04-06T18:30:00.305Z,8.53
2019-04-06T18:34:56.406Z,13.80
2019-04-06T18:39:56.902Z,8.17
2019-04-06T18:44:53.215Z,8.57
2019-04-06T18:49:48.990Z,6.87
2019-04-06T18:54:45.144Z,6.70
2019-04-06T18:59:41.320Z,7.70
2019-04-06T19:04:37.485Z,7.90
2019-04-06T19:09:35.045Z,7.60
2019-04-06T19:14:31.589Z,7.20
2019-04-06T19:19:28.430Z,7.50
2019-04-06T19:24:24.697Z,6.80
2019-04-06T19:29:20.649Z,7.67
2019-04-06T19:34:17.006Z,7.23
2019-04-06T19:39:13.536Z,7.43
2019-04-06T19:44:10.157Z,8.00
2019-04-06T19:49:06.411Z,7.83
2019-04-06T19:54:04.657Z,6.77
2019-04-06T19:59:00.873Z,7.23
2019-04-06T20:03:56.622Z,56.90
2019-04-06T20:08:52.857Z,18.87
2019-04-06T20:13:49.365Z,7.97
2019-04-06T20:18:45.107Z,6.50
2019-04-06T20:23:41.317Z,8.53
2019-04-06T20:28:37.063Z,7.20
2019-04-06T20:33:33.176Z,8.97
2019-04-06T20:38:29.318Z,6.23
2019-04-06T20:43:25.214Z,6.50
2019-04-06T20:48:21.513Z,6.90
2019-04-06T20:53:17.729Z,7.27
2019-04-06T20:58:13.842Z,6.73
2019-04-06T21:03:10.832Z,7.37
2019-04-06T21:08:07.059Z,7.43
2019-04-06T21:13:03.323Z,6.20
2019-04-06T21:17:59.197Z,6.13
2019-04-06T21:22:55.256Z,6.07
2019-04-06T21:27:51.404Z,7.20
2019-04-06T21:32:48.017Z,6.03
2019-04-06T21:37:43.933Z,5.60
2019-04-06T21:42:39.855Z,5.90
2019-04-06T21:47:35.527Z,4.93
2019-04-06T21:52:31.923Z,5.33
2019-04-06T21:57:28.042Z,5.10
2019-04-06T22:02:24.185Z,5.27
2019-04-06T22:07:19.942Z,5.43
2019-04-06T22:12:16.307Z,4.90
2019-04-06T22:17:13.143Z,5.43
2019-04-06T22:22:09.300Z,5.20
2019-04-06T22:27:05.338Z,5.43
2019-04-06T22:32:02.269Z,5.57
2019-04-06T22:36:58.163Z,5.03
2019-04-06T22:41:54.843Z,5.23
2019-04-06T22:46:51.416Z,4.57
2019-04-06T22:51:47.465Z,4.93
2019-04-06T22:56:44.068Z,4.57
2019-04-06T23:01:40.909Z,5.17
2019-04-06T23:06:53.469Z,4.87
2019-04-06T23:11:49.218Z,5.97
2019-04-06T23:21:41.615Z,4.37
2019-04-06T23:26:37.613Z,4.73
2019-04-06T23:31:34.085Z,5.40
2019-04-06T23:36:30.410Z,8.47
2019-04-06T23:41:26.719Z,5.80
2019-04-06T23:46:22.470Z,6.77
2019-04-06T23:51:18.822Z,4.40
2019-04-06T23:56:14.906Z,5.90
